Athlestan, Iowa
Current Conditions -  °F | °C
As of 1:35 AM on Saturday 25 Oct 2014 (Local Time) from KCSQ Reporting Station
Moderate Fog Moderate Fog  
Wind Chill: 54°   Ceiling: Unl
Heat Index: 54°   Visibility: 0mi
Dew Point: 54°   Wind: 6mph
Humidity: 100%   Direction: 310°NW
Pressure: 30"   Gusts: NA
Location:  40.6485°N, 94.5286°W
Report Text: KCSQ 250635Z AUTO 31005KT M1/4SM FG VV000 12/12 A3000 RMK AO2
Loading
Personal Weather Stations






























Interactive Weather Map New forecast layout! Learn more

10-Day Weather Forecast

Advertisements
Track Severe Weather on mobile